Time;durP1;ratioP1;P1;durP2;ratioP2;P2;SDS_P1;SDS_P2;PMS_P1;PMS_P2;Temp;Humidity;BMP_temperature;BMP_pressure;BME280_temperature;BME280_humidity;BME280_pressure;Samples;Min_cycle;Max_cycle;Signal;HPM_P1;HPM_P2
2022/12/10 00:01:52;;;;;;;1.15;1.05;;;;;;;5.21;97.40;98045.59;5014262;28;20054;-70
2022/12/10 00:04:21;;;;;;;2.25;2.05;;;;;;;5.22;97.50;98048.13;5014527;28;20046;-70
2022/12/10 00:06:50;;;;;;;6.28;2.70;;;;;;;5.16;97.19;98038.03;5013955;28;20046;-70
2022/12/10 00:09:21;;;;;;;1.63;1.52;;;;;;;5.20;97.19;98044.78;5014201;28;20092;-70
2022/12/10 00:11:51;;;;;;;1.55;1.45;;;;;;;5.22;97.39;98047.28;5015007;28;20045;-70
2022/12/10 00:14:19;;;;;;;2.75;1.80;;;;;;;5.19;97.08;98049.81;5014069;28;20128;-70
2022/12/10 00:16:48;;;;;;;2.67;2.40;;;;;;;5.19;96.97;98052.34;5014071;28;20045;-70
2022/12/10 00:19:18;;;;;;;1.52;1.00;;;;;;;5.21;97.24;98051.50;5014042;28;20051;-70
2022/12/10 00:21:47;;;;;;;1.42;1.20;;;;;;;5.21;97.28;98048.97;5013986;28;20041;-70
2022/12/10 00:24:16;;;;;;;2.33;2.13;;;;;;;5.04;97.32;98010.31;5013845;28;20045;-70
2022/12/10 00:26:45;;;;;;;2.47;2.10;;;;;;;5.09;97.20;98035.56;5013951;28;20431;-70
2022/12/10 00:29:14;;;;;;;1.50;1.40;;;;;;;5.25;97.27;98058.25;5014497;28;20041;-70
2022/12/10 00:31:43;;;;;;;0.50;0.50;;;;;;;5.22;97.51;98053.19;5013878;28;20050;-70
2022/12/10 00:34:13;;;;;;;;;;;;;;;5.29;97.66;98064.94;5014484;28;20386;-70
2022/12/10 00:36:45;;;;;;;1.13;1.08;;;;;;;5.30;97.14;98066.63;5012622;28;19921;-70
2022/12/10 00:39:16;;;;;;;1.45;1.13;;;;;;;5.30;97.15;98071.66;5014551;28;20128;-70
2022/12/10 00:41:46;;;;;;;1.40;1.27;;;;;;;5.27;97.25;98069.19;5012909;28;20431;-70
2022/12/10 00:44:16;;;;;;;0.88;0.88;;;;;;;5.28;97.18;98063.25;5012763;28;20042;-70
2022/12/10 00:46:44;;;;;;;0.88;0.88;;;;;;;5.25;97.09;98058.25;5012209;28;20058;-70
2022/12/10 00:49:14;;;;;;;4.50;1.03;;;;;;;5.23;97.76;98054.84;5012550;28;20133;-70
2022/12/10 00:51:44;;;;;;;2.28;1.23;;;;;;;5.31;97.27;98067.47;5014010;28;20077;-70
2022/12/10 00:54:13;;;;;;;1.48;0.90;;;;;;;5.27;97.29;98075.94;5014089;28;20104;-70
2022/12/10 00:56:42;;;;;;;1.50;1.40;;;;;;;5.32;97.50;98085.19;5012398;28;20125;-70
2022/12/10 00:59:11;;;;;;;2.45;1.27;;;;;;;5.32;97.16;98079.28;5012938;28;20037;-70
2022/12/10 01:01:43;;;;;;;1.52;1.42;;;;;;;5.33;97.40;98086.00;5013897;28;20053;-70
2022/12/10 01:04:14;;;;;;;1.35;1.25;;;;;;;5.32;97.28;98085.19;5013815;28;20395;-70
2022/12/10 01:06:46;;;;;;;0.65;0.65;;;;;;;5.33;96.94;98084.31;5013532;28;20052;-70
2022/12/10 01:09:18;;;;;;;1.77;1.67;;;;;;;5.16;97.76;98053.22;5013508;28;20061;-70
2022/12/10 01:11:49;;;;;;;1.02;1.02;;;;;;;5.34;97.33;98082.63;5014109;28;20391;-71
2022/12/10 01:14:20;;;;;;;0.60;0.60;;;;;;;5.35;97.50;98085.13;5013822;28;20046;-70
2022/12/10 01:16:49;;;;;;;0.50;0.50;;;;;;;5.31;97.47;98088.53;5013421;28;20092;-70
2022/12/10 01:19:18;;;;;;;1.45;1.30;;;;;;;5.33;97.29;98086.84;5015461;28;20042;-70
2022/12/10 01:21:51;;;;;;;0.65;0.65;;;;;;;5.34;97.69;98093.59;5016395;28;20034;-70
2022/12/10 01:24:19;;;;;;;0.70;0.68;;;;;;;5.34;97.54;98087.69;5016006;28;20057;-70
2022/12/10 01:26:49;;;;;;;0.75;0.75;;;;;;;5.16;97.06;98063.31;5017130;28;20052;-70
2022/12/10 01:29:18;;;;;;;0.93;0.90;;;;;;;5.31;97.68;98091.06;5017108;28;20056;-70
2022/12/10 01:31:47;;;;;;;0.82;0.82;;;;;;;5.35;97.35;98099.50;5017011;28;20129;-70
2022/12/10 01:34:16;;;;;;;0.95;0.95;;;;;;;5.35;97.33;98095.25;5015825;28;20496;-70
2022/12/10 01:36:49;;;;;;;1.77;1.67;;;;;;;5.33;97.31;98094.41;5015790;28;20045;-70
2022/12/10 01:39:21;;;;;;;1.05;1.05;;;;;;;5.33;97.38;98091.91;5016124;28;20046;-70
2022/12/10 01:41:52;;;;;;;2.65;2.45;;;;;;;5.21;97.47;98071.72;5016865;28;20108;-70
2022/12/10 01:44:41;;;;;;;1.10;1.05;;;;;;;5.32;97.71;98079.28;5015924;28;20373;-70
2022/12/10 01:47:10;;;;;;;1.00;0.85;;;;;;;5.30;97.69;98086.84;5016435;28;20128;-70
2022/12/10 01:49:42;;;;;;;0.40;0.40;;;;;;;5.28;97.40;98078.44;5016130;28;20430;-70
2022/12/10 01:52:14;;;;;;;2.95;1.95;;;;;;;5.29;97.49;98084.34;5015881;28;20046;-71
2022/12/10 01:54:47;;;;;;;0.75;0.75;;;;;;;5.28;97.48;98072.53;5016470;28;20099;-71
2022/12/10 01:57:18;;;;;;;1.35;1.25;;;;;;;5.26;97.68;98075.06;5015407;28;20053;-71
2022/12/10 01:59:52;;;;;;;0.95;0.95;;;;;;;5.27;97.40;98089.41;5015423;28;20041;-71
2022/12/10 02:02:29;;;;;;;1.20;1.10;;;;;;;5.27;97.44;98086.88;5016535;28;20054;-71
2022/12/10 02:05:08;;;;;;;0.85;0.85;;;;;;;5.24;97.39;98086.03;5016403;28;20049;-71
2022/12/10 02:07:53;;;;;;;0.88;0.88;;;;;;;5.23;96.97;98076.81;5016381;28;20052;-71
2022/12/10 02:10:35;;;;;;;0.57;0.57;;;;;;;5.22;97.42;98068.38;5016367;28;20049;-71
2022/12/10 02:13:11;;;;;;;1.98;1.77;;;;;;;5.15;97.53;98066.72;5015469;28;20052;-71
2022/12/10 02:15:45;;;;;;;1.67;1.58;;;;;;;5.14;97.05;98070.09;5016264;28;20050;-71
2022/12/10 02:18:20;;;;;;;2.50;1.92;;;;;;;5.10;97.83;98070.97;5016192;28;20050;-71
2022/12/10 02:20:53;;;;;;;0.60;0.60;;;;;;;5.09;97.01;98076.84;5015337;28;20056;-71
2022/12/10 02:23:25;;;;;;;1.17;1.08;;;;;;;5.09;97.40;98086.97;5016420;28;20076;-71
2022/12/10 02:26:03;;;;;;;0.77;0.77;;;;;;;5.06;97.31;98081.91;5014942;28;20092;-71
2022/12/10 02:28:39;;;;;;;1.25;1.15;;;;;;;5.02;96.92;98084.47;5015838;28;20054;-70
2022/12/10 02:31:15;;;;;;;1.65;1.55;;;;;;;4.95;97.20;98082.81;5016284;28;20529;-71
2022/12/10 02:33:50;;;;;;;1.05;1.05;;;;;;;4.87;96.85;98087.91;5015935;28;20567;-70
2022/12/10 02:36:22;;;;;;;1.55;1.45;;;;;;;4.86;97.14;98103.94;5015024;28;20145;-70
2022/12/10 02:38:53;;;;;;;1.42;1.33;;;;;;;4.82;97.11;98112.38;5014604;28;20109;-70
2022/12/10 02:41:29;;;;;;;1.00;1.00;;;;;;;4.58;97.03;98072.03;5014960;28;20054;-71
2022/12/10 02:44:03;;;;;;;1.10;1.05;;;;;;;4.67;97.17;98098.09;5015696;28;20046;-71
2022/12/10 02:46:36;;;;;;;1.70;1.60;;;;;;;4.64;97.11;98109.88;5014290;28;20049;-71
2022/12/10 02:49:09;;;;;;;1.30;0.95;;;;;;;4.54;96.96;98098.97;5015610;28;20045;-71
2022/12/10 02:51:38;;;;;;;2.13;1.88;;;;;;;4.56;96.75;98109.06;5014476;28;20042;-71
2022/12/10 02:54:28;;;;;;;1.27;1.17;;;;;;;4.37;96.86;98089.72;5014682;28;20408;-71
2022/12/10 02:57:04;;;;;;;0.75;0.75;;;;;;;4.44;96.54;98120.03;5015344;28;20057;-71
2022/12/10 02:59:39;;;;;;;0.50;0.50;;;;;;;4.34;97.01;98127.63;5014511;28;20403;-71
2022/12/10 03:02:14;;;;;;;2.28;1.75;;;;;;;4.30;96.70;98131.00;5014442;28;20455;-71
2022/12/10 03:04:49;;;;;;;0.80;0.77;;;;;;;4.29;96.61;98124.28;5014148;28;20503;-71
2022/12/10 03:07:24;;;;;;;0.75;0.70;;;;;;;4.29;96.67;98125.13;5015322;28;20492;-71
2022/12/10 03:09:57;;;;;;;1.83;1.65;;;;;;;4.18;96.36;98120.91;5015207;28;20042;-70
2022/12/10 03:12:30;;;;;;;2.55;0.85;;;;;;;4.14;96.57;98109.97;5015204;28;20046;-71
2022/12/10 03:15:01;;;;;;;1.33;1.25;;;;;;;4.11;96.32;98114.16;5015191;28;20124;-70
2022/12/10 03:17:33;;;;;;;1.27;1.17;;;;;;;4.04;96.30;98113.34;5015220;28;20053;-71
2022/12/10 03:20:03;;;;;;;2.25;2.05;;;;;;;4.04;96.17;98134.38;5014059;28;20064;-71
2022/12/10 03:22:34;;;;;;;3.25;1.50;;;;;;;4.02;96.44;98145.31;5015338;28;20092;-71
2022/12/10 03:25:03;;;;;;;0.77;0.77;;;;;;;3.93;95.94;98136.06;5014856;28;20050;-71
2022/12/10 03:27:33;;;;;;;6.22;3.08;;;;;;;3.99;96.43;98132.69;5015221;28;20543;-71
2022/12/10 03:30:03;;;;;;;1.58;1.48;;;;;;;4.12;96.34;98148.69;5014855;28;20049;-70
2022/12/10 03:32:34;;;;;;;1.33;1.25;;;;;;;4.19;96.31;98153.75;5015062;28;20391;-71
2022/12/10 03:35:03;;;;;;;1.23;1.13;;;;;;;4.21;96.29;98161.28;5014805;28;20491;-71
2022/12/10 03:37:32;;;;;;;2.28;2.08;;;;;;;4.19;96.55;98157.94;5015044;28;20394;-70
2022/12/10 03:40:01;;;;;;;2.17;2.03;;;;;;;4.21;96.14;98163.81;5014423;28;20495;-71
2022/12/10 03:42:29;;;;;;;0.90;0.90;;;;;;;4.34;96.54;98163.00;5014508;28;20045;-71
2022/12/10 03:44:58;;;;;;;1.15;1.05;;;;;;;4.41;96.67;98139.41;5014826;28;20045;-70
2022/12/10 03:47:27;;;;;;;2.25;1.95;;;;;;;4.39;96.40;98105.75;5014312;28;20496;-70
2022/12/10 03:49:57;;;;;;;3.80;2.20;;;;;;;4.52;96.50;98112.44;5014495;28;20042;-70
2022/12/10 03:52:25;;;;;;;0.80;0.80;;;;;;;4.53;96.29;98126.75;5013581;28;20377;-71
2022/12/10 03:54:54;;;;;;;1.35;1.25;;;;;;;4.47;96.71;98137.72;5014811;28;20041;-70
2022/12/10 03:57:23;;;;;;;1.20;1.10;;;;;;;4.44;96.50;98141.94;5014402;28;20133;-71
2022/12/10 03:59:52;;;;;;;2.38;2.00;;;;;;;4.47;96.63;98155.38;5014251;28;20048;-71
2022/12/10 04:02:20;;;;;;;3.40;2.92;;;;;;;4.41;96.46;98134.38;5014326;28;20522;-71
2022/12/10 04:04:50;;;;;;;3.25;2.95;;;;;;;4.57;96.64;98151.16;5013314;28;20104;-71
2022/12/10 04:07:21;;;;;;;0.63;0.63;;;;;;;4.57;96.75;98158.75;5013365;28;20128;-71
2022/12/10 04:09:49;;;;;;;0.57;0.57;;;;;;;4.59;96.80;98160.41;5014252;28;20048;-71
2022/12/10 04:12:18;;;;;;;0.73;0.73;;;;;;;4.59;96.49;98155.38;5014094;28;20124;-71
2022/12/10 04:17:27;;;;;;;4.22;2.38;;;;;;;4.58;96.31;98152.84;5014455;28;20408;-71
2022/12/10 04:19:56;;;;;;;1.30;1.20;;;;;;;4.49;96.67;98137.69;5014117;28;20591;-70
2022/12/10 04:27:43;;;;;;;1.30;1.20;;;;;;;4.45;96.55;98141.06;5013915;28;20050;-70
2022/12/10 04:30:12;;;;;;;1.20;1.10;;;;;;;4.46;96.81;98136.00;5014225;28;20064;-71
2022/12/10 04:32:41;;;;;;;1.58;1.48;;;;;;;4.45;96.84;98146.13;5013798;28;20050;-70
2022/12/10 04:35:10;;;;;;;2.35;1.50;;;;;;;4.40;96.96;98152.88;5013820;28;20061;-70
2022/12/10 04:37:40;;;;;;;1.67;1.58;;;;;;;4.34;96.99;98146.16;5013809;28;20045;-71
2022/12/10 04:40:11;;;;;;;1.67;1.38;;;;;;;4.43;96.52;98168.88;5013823;28;20049;-71
2022/12/10 04:42:39;;;;;;;0.80;0.80;;;;;;;4.32;96.56;98169.72;5013777;28;20057;-71
2022/12/10 04:45:09;;;;;;;1.73;1.63;;;;;;;4.39;96.73;98184.03;5013644;28;20061;-71
2022/12/10 04:47:38;;;;;;;2.58;2.38;;;;;;;4.40;96.67;98178.97;5013538;28;20060;-71
2022/12/10 04:50:07;;;;;;;2.28;1.50;;;;;;;4.39;96.70;98181.50;5014549;28;20049;-71
2022/12/10 04:52:36;;;;;;;1.35;1.27;;;;;;;4.26;96.91;98149.50;5014226;28;20065;-71
2022/12/10 04:55:07;;;;;;;3.10;1.63;;;;;;;4.35;96.82;98165.50;5017766;28;20133;-70
2022/12/10 04:57:36;;;;;;;1.55;1.40;;;;;;;4.30;97.00;98158.75;5017753;28;20108;-71
2022/12/10 05:00:05;;;;;;;4.18;2.03;;;;;;;4.28;96.73;98168.88;5017635;28;20124;-71
2022/12/10 05:02:36;;;;;;;1.00;1.00;;;;;;;4.22;96.73;98168.88;5018138;28;20046;-70
2022/12/10 05:05:05;;;;;;;1.03;1.03;;;;;;;4.21;96.66;98184.03;5016340;28;20042;-70
2022/12/10 05:07:34;;;;;;;2.35;2.15;;;;;;;4.15;97.17;98186.56;5016357;28;20041;-71
2022/12/10 05:10:02;;;;;;;5.63;2.23;;;;;;;4.06;96.56;98198.31;5017472;28;20506;-70
2022/12/10 05:12:33;;;;;;;1.65;1.33;;;;;;;4.08;96.79;98216.81;5017354;28;20111;-70
2022/12/10 05:15:02;;;;;;;1.42;1.33;;;;;;;4.04;96.84;98209.25;5017675;28;20076;-71
2022/12/10 05:17:31;;;;;;;1.10;1.10;;;;;;;4.07;96.70;98210.09;5017400;28;20199;-70
2022/12/10 05:19:59;;;;;;;1.63;1.53;;;;;;;3.97;96.53;98188.22;5016512;28;20132;-71
2022/12/10 05:25:07;;;;;;;0.77;0.77;;;;;;;4.05;96.92;98196.63;5017549;28;20050;-71
2022/12/10 05:27:37;;;;;;;2.80;2.30;;;;;;;4.07;96.65;98189.91;5017229;28;20141;-71
2022/12/10 05:30:08;;;;;;;0.88;0.88;;;;;;;4.10;96.98;98189.09;4999963;28;20108;-71
2022/12/10 05:32:38;;;;;;;1.63;1.52;;;;;;;4.13;96.79;98194.09;5016134;28;20053;-71
2022/12/10 05:35:07;;;;;;;1.40;1.30;;;;;;;4.15;97.05;98187.38;5017325;28;20395;-71
2022/12/10 05:37:36;;;;;;;1.73;1.60;;;;;;;4.15;96.59;98173.94;5017052;28;20050;-71
2022/12/10 05:40:06;;;;;;;0.75;0.75;;;;;;;4.16;97.04;98178.97;5017291;28;20488;-71
2022/12/10 05:42:35;;;;;;;1.00;0.98;;;;;;;4.14;96.54;98185.72;5015864;28;20053;-71
2022/12/10 05:45:06;;;;;;;1.90;1.33;;;;;;;4.13;96.97;98194.09;5015554;28;20041;-71
2022/12/10 05:47:35;;;;;;;0.77;0.77;;;;;;;4.11;96.68;98200.00;5016711;28;20069;-71
2022/12/10 05:50:05;;;;;;;2.45;1.75;;;;;;;4.02;96.79;98189.06;4999721;28;20504;-70
2022/12/10 05:52:34;;;;;;;5.20;2.47;;;;;;;4.04;96.39;98197.47;5016694;28;20054;-70
2022/12/10 05:55:02;;;;;;;0.93;0.93;;;;;;;4.00;96.36;98188.22;5016595;28;20038;-71
2022/12/10 05:57:31;;;;;;;2.45;2.25;;;;;;;3.85;96.72;98178.09;5016702;28;20120;-70
2022/12/10 06:00:00;;;;;;;3.00;2.65;;;;;;;3.88;96.63;98195.78;5016552;28;20038;-71
2022/12/10 06:02:41;;;;;;;4.60;1.77;;;;;;;3.82;96.29;98198.28;5016555;28;20062;-71
2022/12/10 06:05:10;;;;;;;2.92;1.70;;;;;;;3.75;96.25;98196.59;5016192;28;20419;-71
2022/12/10 06:07:39;;;;;;;1.47;1.37;;;;;;;3.77;96.18;98201.63;5016733;28;20510;-71
2022/12/10 06:10:08;;;;;;;2.43;1.50;;;;;;;3.78;95.95;98209.22;5016359;28;20046;-71
2022/12/10 06:12:38;;;;;;;1.50;1.40;;;;;;;3.76;96.17;98203.31;5016309;28;20272;-71
2022/12/10 06:15:08;;;;;;;2.67;2.47;;;;;;;3.73;96.09;98217.59;5016513;28;20050;-71
2022/12/10 06:17:36;;;;;;;;;;;;;;;3.72;95.83;98213.41;5016624;28;20060;-70
2022/12/10 06:20:08;;;;;;;3.25;2.30;;;;;;;3.72;95.55;98221.78;5016503;28;19922;-71
2022/12/10 06:22:37;;;;;;;0.98;0.98;;;;;;;3.69;96.01;98216.75;5016420;28;20092;-70
2022/12/10 06:25:07;;;;;;;0.77;0.77;;;;;;;3.72;95.98;98226.84;5016092;28;20602;-71
2022/12/10 06:27:35;;;;;;;;;;;;;;;3.73;95.91;98233.59;5016411;28;20132;-71
2022/12/10 06:30:05;;;;;;;1.45;1.35;;;;;;;3.73;95.27;98233.59;5015938;28;19921;-71
2022/12/10 06:32:34;;;;;;;1.05;1.02;;;;;;;3.68;95.39;98215.06;5015111;28;20124;-71
2022/12/10 06:35:02;;;;;;;0.95;0.95;;;;;;;3.76;95.13;98227.72;5015876;28;20049;-71
2022/12/10 06:37:32;;;;;;;7.50;1.33;;;;;;;3.80;95.46;98240.34;5016446;28;20518;-71
2022/12/10 06:40:01;;;;;;;0.50;0.50;;;;;;;3.85;95.52;98246.22;5015824;28;20077;-71
2022/12/10 06:42:30;;;;;;;1.20;1.10;;;;;;;3.87;94.81;98251.28;5015803;28;20042;-71
2022/12/10 06:44:58;;;;;;;2.63;2.42;;;;;;;3.84;95.04;98236.97;5015693;28;20100;-71
2022/12/10 06:47:27;;;;;;;1.85;1.75;;;;;;;3.87;94.89;98247.06;5015359;28;20061;-71
2022/12/10 06:49:55;;;;;;;1.50;1.33;;;;;;;3.89;95.03;98250.44;5016211;28;20034;-71
2022/12/10 06:52:24;;;;;;;2.55;1.75;;;;;;;3.92;94.33;98245.41;5015492;28;20057;-71
2022/12/10 06:54:55;;;;;;;1.15;1.13;;;;;;;3.94;94.84;98243.72;5014352;28;20070;-70
2022/12/10 06:57:23;;;;;;;1.23;1.13;;;;;;;3.93;94.48;98242.06;5015467;28;20053;-71
2022/12/10 06:59:53;;;;;;;1.33;1.23;;;;;;;3.94;94.16;98248.78;5015358;28;20123;-71
2022/12/10 07:02:21;;;;;;;1.73;1.63;;;;;;;3.95;93.92;98249.63;5015360;28;20046;-71
2022/12/10 07:04:50;;;;;;;1.97;1.87;;;;;;;3.93;93.63;98257.19;5015297;28;20096;-71
2022/12/10 07:07:19;;;;;;;1.05;1.00;;;;;;;3.98;93.58;98264.78;5015317;28;20037;-72
2022/12/10 07:09:47;;;;;;;3.08;2.45;;;;;;;4.01;94.06;98264.75;5014174;28;20522;-72
2022/12/10 07:12:17;;;;;;;1.75;1.45;;;;;;;4.01;93.50;98265.59;5015189;28;20064;-72
2022/12/10 07:14:46;;;;;;;1.23;1.15;;;;;;;4.04;93.31;98263.09;5015050;28;20491;-73
2022/12/10 07:17:15;;;;;;;2.17;1.58;;;;;;;4.08;93.29;98261.41;5014887;28;20089;-72
2022/12/10 07:19:44;;;;;;;1.80;1.70;;;;;;;4.07;93.28;98253.03;5014964;28;20053;-72
2022/12/10 07:22:12;;;;;;;1.83;1.25;;;;;;;4.08;92.94;98251.31;5015429;28;20046;-72
2022/12/10 07:24:41;;;;;;;1.05;1.05;;;;;;;3.99;93.20;98231.97;5014934;28;20044;-72
2022/12/10 07:27:10;;;;;;;0.97;0.90;;;;;;;4.10;92.46;98243.75;5013769;28;20140;-72
2022/12/10 07:29:40;;;;;;;1.80;1.57;;;;;;;4.10;92.43;98248.81;5015123;28;20318;-72
2022/12/10 07:32:09;;;;;;;1.55;1.45;;;;;;;4.10;92.58;98249.66;5015115;28;20500;-71
2022/12/10 07:34:37;;;;;;;3.00;2.20;;;;;;;4.11;92.24;98250.47;5015434;28;20068;-71
2022/12/10 07:37:06;;;;;;;3.03;2.83;;;;;;;4.12;92.59;98231.97;5015058;28;20049;-72
2022/12/10 07:39:35;;;;;;;2.80;2.37;;;;;;;4.10;92.30;98233.66;5014725;28;20038;-71
2022/12/10 07:42:04;;;;;;;0.77;0.77;;;;;;;4.08;91.69;98238.69;5015145;28;20052;-72
2022/12/10 07:44:33;;;;;;;3.78;1.70;;;;;;;4.12;92.06;98244.59;5013722;28;20362;-71
2022/12/10 07:47:03;;;;;;;2.25;2.15;;;;;;;4.18;91.37;98239.53;5014286;28;20500;-71
2022/12/10 07:49:32;;;;;;;0.77;0.77;;;;;;;4.22;91.71;98239.59;5011884;28;20047;-72
2022/12/10 07:52:01;;;;;;;1.45;1.35;;;;;;;4.23;91.11;98225.25;4995646;28;20054;-71
2022/12/10 07:54:30;;;;;;;4.05;2.30;;;;;;;4.24;91.20;98226.94;4978027;28;20097;-72
2022/12/10 07:56:58;;;;;;;1.85;1.75;;;;;;;4.24;91.29;98221.91;4994740;28;20046;-71
2022/12/10 07:59:27;;;;;;;2.65;2.15;;;;;;;4.26;91.11;98217.69;4997171;28;20080;-71
2022/12/10 08:01:55;;;;;;;1.20;1.13;;;;;;;4.29;91.03;98227.78;5000017;28;20065;-71
2022/12/10 08:04:28;;;;;;;0.70;0.70;;;;;;;4.29;90.79;98235.38;4994908;28;20038;-71
2022/12/10 08:06:58;;;;;;;2.33;2.08;;;;;;;4.29;90.42;98222.75;4994726;28;20096;-71
2022/12/10 08:09:26;;;;;;;;;;;;;;;4.31;90.87;98224.44;4995477;28;20043;-71
2022/12/10 08:11:55;;;;;;;7.82;1.83;;;;;;;4.33;90.34;98219.38;4994810;28;20296;-72
2022/12/10 08:14:24;;;;;;;2.63;2.42;;;;;;;4.32;90.40;98215.19;4994424;28;20512;-72
2022/12/10 08:16:53;;;;;;;4.32;3.05;;;;;;;4.32;90.15;98215.19;4994393;28;20038;-72
2022/12/10 08:19:21;;;;;;;1.33;1.23;;;;;;;4.35;89.98;98207.56;4994641;28;20038;-72
2022/12/10 08:21:59;;;;;;;1.30;1.20;;;;;;;4.37;89.46;98198.31;4994764;28;20046;-72
2022/12/10 08:24:27;;;;;;;3.90;3.50;;;;;;;4.36;89.47;98194.13;4977197;28;20046;-72
2022/12/10 08:26:56;;;;;;;1.65;1.55;;;;;;;4.40;89.45;98198.31;4994013;28;20047;-71
2022/12/10 08:29:25;;;;;;;3.53;2.07;;;;;;;4.42;88.88;98201.69;4994235;28;20060;-72
2022/12/10 08:31:56;;;;;;;1.90;1.80;;;;;;;4.45;89.30;98207.59;4976962;28;20643;-72
2022/12/10 08:34:25;;;;;;;9.27;2.88;;;;;;;4.48;88.72;98202.53;4994221;28;20049;-72
2022/12/10 08:36:54;;;;;;;0.90;0.90;;;;;;;4.47;88.37;98200.00;4994431;28;20049;-71
2022/12/10 08:39:25;;;;;;;1.58;1.48;;;;;;;4.49;88.52;98198.31;4994146;28;20497;-72
2022/12/10 08:41:54;;;;;;;2.10;1.90;;;;;;;4.54;88.47;98196.63;4994489;28;20057;-71
2022/12/10 08:44:22;;;;;;;1.83;1.40;;;;;;;4.56;88.38;98202.50;4994340;28;20154;-72
2022/12/10 08:46:51;;;;;;;1.65;1.45;;;;;;;4.60;87.76;98217.69;4993930;28;20060;-71
2022/12/10 08:49:20;;;;;;;0.67;0.67;;;;;;;4.59;87.85;98220.19;4994026;28;20493;-72
2022/12/10 08:51:48;;;;;;;1.60;1.50;;;;;;;4.62;87.65;98220.22;4994330;28;20045;-71
2022/12/10 08:54:17;;;;;;;4.38;1.90;;;;;;;4.65;87.84;98207.59;4994258;28;20046;-71
2022/12/10 08:56:47;;;;;;;1.10;1.05;;;;;;;4.69;87.72;98216.84;4976792;28;20039;-71
2022/12/10 08:59:16;;;;;;;3.53;1.95;;;;;;;4.72;87.37;98221.88;4994247;28;20122;-71
2022/12/10 09:01:45;;;;;;;3.42;3.13;;;;;;;4.75;86.93;98226.94;4993912;28;20531;-71
2022/12/10 09:04:15;;;;;;;1.70;1.60;;;;;;;4.78;86.96;98231.97;4993932;28;20053;-71
2022/12/10 09:06:44;;;;;;;1.58;1.45;;;;;;;4.80;87.22;98240.38;4993448;28;20492;-71
2022/12/10 09:09:12;;;;;;;0.85;0.85;;;;;;;4.84;86.74;98247.16;4993706;28;20092;-71
2022/12/10 09:11:41;;;;;;;0.90;0.90;;;;;;;4.84;86.84;98247.16;4993798;28;20039;-71
2022/12/10 09:14:11;;;;;;;1.42;1.33;;;;;;;4.86;86.68;98237.88;4994215;28;20452;-71
2022/12/10 09:16:40;;;;;;;1.98;1.83;;;;;;;4.88;86.56;98227.75;4993160;28;20042;-71
2022/12/10 09:19:08;;;;;;;0.65;0.65;;;;;;;4.88;86.49;98233.66;4994003;28;20145;-71
2022/12/10 09:21:40;;;;;;;1.42;1.33;;;;;;;4.92;86.09;98229.44;4993809;28;20051;-70
2022/12/10 09:24:10;;;;;;;1.67;1.58;;;;;;;4.89;86.26;98225.25;4993784;28;20488;-71
2022/12/10 09:26:38;;;;;;;1.45;1.35;;;;;;;4.96;86.32;98215.94;4993773;28;20100;-71
2022/12/10 09:29:07;;;;;;;1.38;1.27;;;;;;;4.97;85.66;98222.66;4993579;28;20039;-70
2022/12/10 09:31:38;;;;;;;4.80;3.67;;;;;;;5.00;86.03;98228.56;4993936;28;20045;-71
2022/12/10 09:34:07;;;;;;;2.45;2.25;;;;;;;4.99;85.33;98221.81;4976945;28;20053;-71
2022/12/10 09:36:36;;;;;;;2.40;1.88;;;;;;;5.00;85.53;98228.56;4993578;28;20492;-71
2022/12/10 09:39:05;;;;;;;4.07;2.83;;;;;;;5.02;85.47;98226.03;4995155;28;20189;-70
2022/12/10 09:41:55;;;;;;;5.53;2.08;;;;;;;5.10;85.07;98229.38;4997259;28;20046;-71
2022/12/10 09:44:38;;;;;;;3.28;2.88;;;;;;;5.11;85.14;98236.97;4997260;28;20050;-70
2022/12/10 09:47:11;;;;;;;1.40;1.30;;;;;;;5.06;84.80;98228.53;4997024;28;20077;-71
2022/12/10 09:49:54;;;;;;;4.85;3.38;;;;;;;5.09;84.86;98243.72;4997125;28;20105;-70
2022/12/10 09:52:26;;;;;;;4.68;4.30;;;;;;;5.10;84.59;98240.34;4997140;28;20097;-71
2022/12/10 09:55:01;;;;;;;3.30;2.38;;;;;;;5.12;84.60;98232.75;4997051;28;20050;-70
2022/12/10 09:57:34;;;;;;;5.07;3.60;;;;;;;5.17;84.52;98226.84;5001927;28;20118;-70
2022/12/10 10:00:07;;;;;;;2.80;2.55;;;;;;;5.22;84.32;98214.19;5009546;28;20053;-70
2022/12/10 10:02:40;;;;;;;3.42;2.30;;;;;;;5.25;84.63;98216.72;5015202;28;20088;-70
2022/12/10 10:05:17;;;;;;;2.97;2.35;;;;;;;5.25;84.20;98215.03;5014703;28;20073;-70
2022/12/10 10:07:53;;;;;;;1.98;1.88;;;;;;;5.26;84.28;98210.78;5021668;28;20132;-70
2022/12/10 10:10:28;;;;;;;1.58;1.48;;;;;;;5.28;83.94;98209.94;5023575;28;20038;-70
2022/12/10 10:13:02;;;;;;;2.75;2.55;;;;;;;5.29;84.29;98210.78;4998729;28;20049;-71
2022/12/10 10:15:34;;;;;;;3.22;2.13;;;;;;;5.31;83.94;98212.47;5016181;28;20046;-70
2022/12/10 10:18:13;;;;;;;1.48;1.38;;;;;;;5.35;83.88;98209.06;5016123;28;20042;-69
2022/12/10 10:20:42;;;;;;;1.88;1.77;;;;;;;5.36;83.68;98210.75;5016020;28;20050;-71
2022/12/10 10:23:14;;;;;;;0.93;0.93;;;;;;;5.43;83.46;98211.56;5015907;28;20044;-70
2022/12/10 10:25:44;;;;;;;1.35;0.80;;;;;;;5.45;82.90;98216.63;5016325;28;20046;-69
2022/12/10 10:28:19;;;;;;;4.68;3.33;;;;;;;5.47;82.69;98214.94;5013656;28;20048;-70
2022/12/10 10:30:48;;;;;;;2.17;1.98;;;;;;;5.53;82.67;98219.97;4996585;28;20077;-70
2022/12/10 10:33:18;;;;;;;2.67;1.90;;;;;;;5.58;82.73;98215.72;4997053;28;20042;-70
2022/12/10 10:35:49;;;;;;;1.77;1.45;;;;;;;5.41;82.31;98191.34;5016097;28;20369;-71
2022/12/10 10:38:23;;;;;;;1.45;1.35;;;;;;;5.56;82.18;98209.84;5016022;28;20050;-70
2022/12/10 10:40:54;;;;;;;1.40;1.30;;;;;;;5.57;81.96;98214.88;5015627;28;20064;-70
2022/12/10 10:43:26;;;;;;;1.65;1.13;;;;;;;5.55;81.81;98208.13;5015629;28;20488;-71
2022/12/10 10:45:58;;;;;;;1.27;1.17;;;;;;;5.59;81.20;98215.72;5015547;28;20045;-70
2022/12/10 10:48:29;;;;;;;9.02;1.63;;;;;;;5.59;81.79;98209.81;5015634;28;20042;-70
2022/12/10 10:51:07;;;;;;;1.10;1.00;;;;;;;5.62;81.29;98214.84;5015419;28;20064;-69
2022/12/10 10:53:43;;;;;;;0.70;0.70;;;;;;;5.57;81.50;98196.31;5015369;28;20555;-69
2022/12/10 10:56:16;;;;;;;1.38;1.27;;;;;;;5.69;81.44;98203.84;5015623;28;20481;-70
2022/12/10 10:58:51;;;;;;;2.05;1.35;;;;;;;5.74;81.70;98205.50;5015587;28;20172;-70
2022/12/10 11:01:20;;;;;;;1.50;1.40;;;;;;;5.76;81.68;98197.94;5015105;28;20077;-69
2022/12/10 11:03:54;;;;;;;2.15;1.95;;;;;;;5.79;81.34;98208.00;5015104;28;20038;-70
2022/12/10 11:06:23;;;;;;;2.28;2.08;;;;;;;5.80;81.02;98204.66;5015094;28;20045;-70
2022/12/10 11:08:57;;;;;;;6.82;4.40;;;;;;;5.83;81.39;98194.50;5015090;28;20468;-69
2022/12/10 11:11:34;;;;;;;2.17;1.60;;;;;;;5.82;81.08;98182.69;5015350;28;20054;-70
2022/12/10 11:14:15;;;;;;;2.85;2.08;;;;;;;5.76;81.35;98192.88;5015312;28;20554;-69
2022/12/10 11:16:44;;;;;;;1.13;1.02;;;;;;;5.74;81.47;98199.59;5015005;28;20491;-70
2022/12/10 11:19:22;;;;;;;1.47;1.13;;;;;;;5.71;80.71;98195.41;5015099;28;20088;-69
2022/12/10 11:21:51;;;;;;;3.70;2.60;;;;;;;5.72;81.16;98194.56;5014492;28;20287;-69
2022/12/10 11:24:20;;;;;;;2.35;2.15;;;;;;;5.74;81.05;98195.38;5013541;28;20403;-70
2022/12/10 11:27:03;;;;;;;1.67;1.58;;;;;;;5.78;81.25;98196.22;5015147;28;20045;-69
2022/12/10 11:29:44;;;;;;;1.70;1.60;;;;;;;5.81;80.68;98186.91;5014946;28;20042;-70
2022/12/10 11:32:34;;;;;;;2.67;1.75;;;;;;;5.83;80.72;98194.50;5014800;28;20108;-69
2022/12/10 11:35:12;;;;;;;1.23;1.13;;;;;;;5.79;80.92;98183.56;5014968;28;20137;-70
2022/12/10 11:37:50;;;;;;;2.67;1.38;;;;;;;5.80;80.45;98184.41;5016020;28;20096;-69
2022/12/10 11:40:34;;;;;;;5.30;4.40;;;;;;;5.84;80.51;98181.00;5034647;28;20116;-69
2022/12/10 11:43:28;;;;;;;1.23;1.13;;;;;;;5.81;80.42;98181.00;5034506;28;20403;-70
2022/12/10 11:46:12;;;;;;;2.05;1.27;;;;;;;5.82;80.31;98177.63;5034155;28;20451;-69
2022/12/10 11:49:01;;;;;;;0.80;0.80;;;;;;;5.84;80.84;98175.94;5034293;28;20042;-69
2022/12/10 11:51:38;;;;;;;1.45;1.35;;;;;;;5.79;80.46;98177.66;5034220;28;20141;-70
2022/12/10 11:54:33;;;;;;;1.30;1.20;;;;;;;5.72;80.36;98165.88;5034454;28;20553;-69
2022/12/10 11:57:10;;;;;;;2.10;1.98;;;;;;;5.65;80.40;98149.06;5034169;28;20053;-69
2022/12/10 11:59:47;;;;;;;2.47;1.23;;;;;;;5.72;80.17;98158.28;5034065;28;20110;-69
2022/12/10 12:03:04;;;;;;;0.55;0.55;;;;;;;5.73;80.25;98157.44;5033721;28;20050;-68
2022/12/10 12:05:47;;;;;;;1.63;1.33;;;;;;;5.72;80.50;98156.59;5034627;28;20056;-69
2022/12/10 12:08:24;;;;;;;1.52;1.33;;;;;;;5.71;80.50;98161.69;5034197;28;20045;-68
2022/12/10 12:11:20;;;;;;;0.68;0.65;;;;;;;5.59;80.28;98144.03;5033899;28;20041;-69
2022/12/10 12:13:57;;;;;;;1.30;1.20;;;;;;;5.67;80.43;98168.44;5033899;28;20076;-68
2022/12/10 12:16:32;;;;;;;2.65;0.82;;;;;;;5.68;80.12;98164.22;5033861;28;20049;-68